Time;durP1;ratioP1;P1;durP2;ratioP2;P2;SDS_P1;SDS_P2;PMS_P1;PMS_P2;Temp;Humidity;BMP_temperature;BMP_pressure;BME280_temperature;BME280_humidity;BME280_pressure;Samples;Min_cycle;Max_cycle;Signal;HPM_P1;HPM_P2
2022/10/15 06:40:02;;;;;;;2.97;1.00;;;13.30;99.90;;;;;;5136615;27;20312;-81
2022/10/15 06:42:27;;;;;;;0.93;0.93;;;13.30;99.90;;;;;;5118056;28;20180;-81
2022/10/15 06:44:53;;;;;;;1.50;1.20;;;13.30;99.90;;;;;;5120290;28;20171;-81
2022/10/15 07:12:21;;;;;;;1.17;0.73;;;13.40;99.90;;;;;;5136308;27;20326;-81
2022/10/15 07:14:48;;;;;;;0.70;0.70;;;13.50;99.90;;;;;;5118521;28;20172;-82
2022/10/15 07:22:36;;;;;;;1.10;0.93;;;13.50;99.90;;;;;;5129323;27;20572;-82
2022/10/15 07:25:02;;;;;;;0.60;0.60;;;13.60;99.90;;;;;;5095797;28;20200;-81
2022/10/15 07:27:27;;;;;;;2.60;1.63;;;13.60;99.90;;;;;;5093797;28;20192;-79
2022/10/15 07:29:53;;;;;;;2.40;1.30;;;13.60;99.90;;;;;;5097224;28;20164;-81
2022/10/15 07:32:19;;;;;;;1.67;1.50;;;13.70;99.90;;;;;;5096104;28;20254;-81
2022/10/15 07:41:12;;;;;;;0.83;0.83;;;16.60;99.90;;;;;;5130183;27;20495;-81
2022/10/15 07:43:38;;;;;;;1.73;1.00;;;13.80;99.90;;;;;;5095157;28;20180;-80
2022/10/15 07:46:04;;;;;;;1.00;0.90;;;13.90;99.90;;;;;;5097580;28;20176;-80
2022/10/15 07:48:30;;;;;;;1.17;1.00;;;13.90;99.90;;;;;;5096817;28;20582;-80
2022/10/15 07:51:02;;;;;;;0.70;0.70;;;13.90;99.90;;;;;;5096342;28;20259;-82
2022/10/15 07:53:29;;;;;;;1.40;1.10;;;14.00;99.90;;;;;;5095362;28;20251;-80
2022/10/15 07:56:02;;;;;;;1.83;0.70;;;14.10;99.90;;;;;;5096983;28;20210;-82
2022/10/15 07:58:29;;;;;;;1.90;0.80;;;14.00;99.90;;;;;;5096485;28;20216;-82
2022/10/15 08:03:01;;;;;;;1.70;0.80;;;14.10;99.90;;;;;;5133217;27;20315;-80
2022/10/15 08:05:27;;;;;;;1.40;1.00;;;14.10;99.90;;;;;;5116317;28;20183;-83
2022/10/15 08:07:52;;;;;;;0.93;0.80;;;14.30;99.90;;;;;;5114913;28;20259;-83
2022/10/15 08:10:18;;;;;;;1.97;1.00;;;14.20;99.90;;;;;;5115319;28;20641;-82
2022/10/15 08:12:44;;;;;;;1.00;0.90;;;14.20;99.90;;;;;;5115973;28;20633;-83
2022/10/15 08:15:10;;;;;;;3.33;0.80;;;14.30;99.90;;;;;;5116766;28;20176;-84
2022/10/15 08:17:35;;;;;;;0.77;0.77;;;14.20;99.90;;;;;;5117381;28;20191;-81
2022/10/15 08:20:01;;;;;;;1.13;0.73;;;14.20;99.90;;;;;;5115852;28;20183;-82
2022/10/15 08:22:26;;;;;;;3.07;0.93;;;14.20;99.90;;;;;;5117128;28;20192;-81
2022/10/15 08:24:52;;;;;;;3.13;1.03;;;14.20;99.90;;;;;;5116717;28;20175;-81
2022/10/15 08:27:18;;;;;;;1.60;0.80;;;14.20;99.90;;;;;;5117405;28;20202;-82
2022/10/15 08:29:45;;;;;;;1.00;0.80;;;;;;;;;;5117106;28;20178;-82
2022/10/15 08:32:12;;;;;;;2.40;1.00;;;14.30;99.90;;;;;;5117672;28;20507;-81
2022/10/15 08:34:37;;;;;;;2.03;0.87;;;14.40;99.90;;;;;;5119163;28;20189;-83
2022/10/15 08:37:03;;;;;;;0.80;0.70;;;14.50;99.90;;;;;;5120880;28;20231;-82
2022/10/15 08:39:29;;;;;;;0.80;0.70;;;14.50;99.90;;;;;;5120440;28;20172;-83
2022/10/15 08:41:59;;;;;;;1.13;0.90;;;14.70;99.90;;;;;;5119002;28;20200;-82
2022/10/15 08:44:42;;;;;;;0.80;0.80;;;14.90;99.90;;;;;;5119079;28;20175;-83
2022/10/15 08:47:35;;;;;;;2.30;0.90;;;15.40;99.90;;;;;;5119746;28;20527;-83
2022/10/15 08:50:29;;;;;;;1.67;0.80;;;15.40;99.90;;;;;;5118580;28;20171;-83
2022/10/15 08:52:58;;;;;;;0.77;0.77;;;16.10;99.90;;;;;;5111006;28;20266;-83
2022/10/15 08:55:30;;;;;;;1.57;0.80;;;16.40;99.90;;;;;;5121312;28;20172;-83
2022/10/15 08:58:14;;;;;;;1.07;0.80;;;16.20;99.90;;;;;;5116059;28;20662;-81
2022/10/15 09:00:49;;;;;;;1.40;0.93;;;16.10;99.90;;;;;;5113901;28;20151;-82
2022/10/15 09:03:36;;;;;;;2.03;1.00;;;16.10;99.90;;;;;;5114658;28;20166;-81
2022/10/15 09:06:06;;;;;;;2.10;0.90;;;16.10;99.90;;;;;;5114345;28;20171;-82
2022/10/15 09:08:47;;;;;;;3.57;1.20;;;16.00;99.90;;;;;;5112343;28;20203;-82
2022/10/15 09:12:01;;;;;;;1.17;0.90;;;15.80;99.90;;;;;;5112592;28;20176;-84
2022/10/15 09:14:34;;;;;;;2.43;0.83;;;15.60;99.90;;;;;;5093027;28;20237;-83
2022/10/15 09:17:05;;;;;;;0.90;0.90;;;15.60;99.90;;;;;;5101004;28;20164;-83
2022/10/15 09:19:33;;;;;;;0.70;0.70;;;15.60;99.90;;;;;;5102878;28;20618;-83
2022/10/15 09:22:01;;;;;;;3.67;1.40;;;16.10;99.90;;;;;;5100806;28;20572;-83
2022/10/15 09:24:29;;;;;;;1.83;1.00;;;16.90;99.90;;;;;;5101286;28;20172;-83
2022/10/15 09:27:05;;;;;;;1.27;1.00;;;17.40;99.90;;;;;;5101917;28;20169;-83
2022/10/15 09:29:55;;;;;;;0.90;0.90;;;17.40;99.90;;;;;;5101475;28;20175;-82
2022/10/15 09:32:34;;;;;;;1.00;0.90;;;17.20;99.90;;;;;;5101863;28;20662;-81
2022/10/15 09:35:11;;;;;;;1.00;0.90;;;16.70;99.90;;;;;;5100210;28;20572;-81
2022/10/15 09:38:05;;;;;;;3.33;1.00;;;16.30;99.90;;;;;;5101843;28;20189;-82
2022/10/15 09:40:37;;;;;;;1.30;0.77;;;16.30;99.90;;;;;;5092105;28;20194;-82
2022/10/15 09:43:04;;;;;;;1.43;0.70;;;16.30;99.90;;;;;;5100386;28;20184;-82
2022/10/15 09:45:30;;;;;;;1.00;0.80;;;16.20;99.90;;;;;;5101920;28;20658;-83
2022/10/15 09:47:59;;;;;;;0.80;0.80;;;16.40;99.90;;;;;;5102352;28;20188;-81
2022/10/15 09:50:39;;;;;;;0.87;0.73;;;16.40;99.90;;;;;;5103896;28;20176;-82
2022/10/15 09:53:27;;;;;;;0.90;0.80;;;16.50;99.90;;;;;;5105545;28;20510;-84
2022/10/15 09:56:10;;;;;;;1.50;1.10;;;16.70;99.90;;;;;;5110740;28;20165;-83
2022/10/15 09:58:50;;;;;;;1.80;0.90;;;16.70;99.90;;;;;;5117382;28;20222;-82
2022/10/15 10:01:26;;;;;;;1.60;0.73;;;16.80;99.90;;;;;;5106125;28;20247;-82
2022/10/15 10:04:07;;;;;;;2.83;0.80;;;16.70;99.90;;;;;;5098238;28;20168;-80
2022/10/15 10:06:44;;;;;;;1.50;0.90;;;16.80;99.90;;;;;;5100643;28;20161;-81
2022/10/15 10:09:16;;;;;;;3.90;1.40;;;17.00;99.90;;;;;;5099192;28;20193;-82
2022/10/15 10:11:53;;;;;;;1.87;1.37;;;17.10;99.90;;;;;;5098708;28;20183;-82
2022/10/15 10:14:29;;;;;;;1.40;1.00;;;17.10;99.90;;;;;;5100140;28;20248;-82
2022/10/15 10:17:16;;;;;;;2.20;0.90;;;18.50;99.90;;;;;;5098818;28;20165;-81
2022/10/15 10:19:44;;;;;;;1.87;0.93;;;18.50;99.90;;;;;;5098016;28;20168;-82
2022/10/15 10:22:16;;;;;;;2.83;0.90;;;19.20;99.90;;;;;;5099010;28;20260;-82
2022/10/15 10:24:43;;;;;;;1.00;0.80;;;19.60;99.90;;;;;;5099377;28;20222;-84
2022/10/15 10:27:21;;;;;;;1.20;0.60;;;19.30;99.90;;;;;;5099450;28;20642;-82
2022/10/15 10:29:54;;;;;;;0.60;0.60;;;18.70;99.90;;;;;;5098859;28;20165;-83
2022/10/15 10:32:23;;;;;;;0.80;0.80;;;18.50;99.90;;;;;;5101533;28;20160;-84
2022/10/15 10:34:49;;;;;;;0.77;0.63;;;19.10;99.90;;;;;;5100917;28;20172;-84
2022/10/15 10:37:15;;;;;;;2.57;0.67;;;19.80;99.90;;;;;;5101063;28;20183;-85
2022/10/15 10:39:42;;;;;;;1.33;0.70;;;19.30;99.90;;;;;;5100622;28;20172;-84
2022/10/15 10:42:17;;;;;;;1.10;0.87;;;18.80;99.90;;;;;;5099648;28;20211;-84
2022/10/15 10:44:46;;;;;;;0.97;0.70;;;18.30;99.90;;;;;;5101837;28;20172;-83
2022/10/15 10:47:19;;;;;;;1.23;0.70;;;18.00;99.90;;;;;;5100249;28;20168;-83
2022/10/15 10:49:50;;;;;;;1.20;0.87;;;18.00;99.90;;;;;;5099986;28;20169;-83
2022/10/15 10:52:30;;;;;;;0.93;0.80;;;18.00;99.90;;;;;;5102479;28;20160;-84
2022/10/15 10:55:10;;;;;;;1.60;0.90;;;18.00;99.90;;;;;;5102320;28;20185;-85
2022/10/15 10:57:58;;;;;;;1.37;0.70;;;17.80;99.90;;;;;;5101298;28;20228;-83
2022/10/15 11:00:57;;;;;;;1.17;0.77;;;17.90;99.90;;;;;;5100457;28;20167;-84
2022/10/15 11:03:25;;;;;;;1.37;0.80;;;17.70;99.90;;;;;;5096120;28;20284;-83
2022/10/15 11:06:08;;;;;;;1.80;1.20;;;17.70;99.90;;;;;;5101902;28;20161;-83
2022/10/15 11:08:44;;;;;;;1.00;0.90;;;17.80;99.90;;;;;;5101682;28;20214;-83
2022/10/15 11:11:18;;;;;;;4.43;1.40;;;18.10;99.90;;;;;;5102630;28;20628;-84
2022/10/15 11:14:01;;;;;;;1.00;0.90;;;18.40;99.90;;;;;;5102222;28;20175;-85
2022/10/15 11:16:49;;;;;;;1.23;0.90;;;18.40;99.90;;;;;;5100102;28;20167;-85
2022/10/15 11:19:18;;;;;;;4.17;3.23;;;18.20;99.90;;;;;;5098789;28;20201;-81
2022/10/15 11:22:02;;;;;;;2.30;2.10;;;18.20;99.90;;;;;;5098464;28;20208;-85
2022/10/15 11:24:34;;;;;;;1.00;0.90;;;18.30;99.90;;;;;;5100911;28;20162;-84
2022/10/15 11:27:27;;;;;;;1.10;1.00;;;18.40;99.90;;;;;;5098039;28;20175;-82
2022/10/15 11:30:04;;;;;;;1.30;1.10;;;18.30;99.90;;;;;;5097274;28;20180;-80
2022/10/15 11:33:07;;;;;;;1.83;0.80;;;18.30;99.90;;;;;;5097450;28;20619;-81
2022/10/15 11:35:35;;;;;;;1.07;0.97;;;18.30;99.90;;;;;;5097243;28;20277;-83
2022/10/15 11:38:24;;;;;;;2.50;0.90;;;18.10;99.90;;;;;;5095538;28;20198;-83
2022/10/15 11:40:50;;;;;;;1.50;0.73;;;18.10;99.90;;;;;;5098163;28;20158;-82
2022/10/15 11:43:46;;;;;;;1.80;1.20;;;18.20;99.90;;;;;;5096796;28;20536;-83
2022/10/15 11:46:29;;;;;;;1.57;0.80;;;18.60;99.90;;;;;;5096771;28;20188;-83
2022/10/15 11:49:20;;;;;;;3.30;1.57;;;18.60;99.90;;;;;;5095946;28;20232;-83
2022/10/15 11:52:03;;;;;;;3.13;1.17;;;18.60;99.90;;;;;;5096478;28;20181;-83
2022/10/15 11:54:41;;;;;;;3.07;1.97;;;18.90;99.90;;;;;;5097797;28;20166;-82
2022/10/15 11:57:14;;;;;;;4.10;1.13;;;20.60;99.90;;;;;;5097552;28;20170;-84
2022/10/15 11:59:57;;;;;;;2.00;1.10;;;20.60;99.90;;;;;;5097026;28;20172;-82
2022/10/15 12:02:32;;;;;;;1.00;0.90;;;21.70;99.90;;;;;;5096729;28;20265;-82
2022/10/15 12:05:05;;;;;;;0.90;0.70;;;22.60;99.90;;;;;;5099825;28;20172;-84
2022/10/15 12:07:39;;;;;;;0.60;0.60;;;22.90;99.90;;;;;;5096965;28;20196;-83
2022/10/15 12:10:10;;;;;;;0.70;0.60;;;23.10;99.90;;;;;;5097985;28;20168;-83
2022/10/15 12:12:42;;;;;;;0.70;0.70;;;23.30;99.90;;;;;;5098532;28;20185;-81
2022/10/15 12:15:34;;;;;;;0.70;0.70;;;23.40;99.90;;;;;;5097168;28;20185;-82
2022/10/15 12:18:09;;;;;;;1.43;0.80;;;23.50;99.90;;;;;;5097592;28;20698;-82
2022/10/15 12:20:35;;;;;;;0.90;0.70;;;23.80;99.90;;;;;;5100541;28;20200;-84
2022/10/15 12:23:02;;;;;;;0.77;0.70;;;23.70;99.90;;;;;;5101298;28;20206;-84
2022/10/15 12:25:33;;;;;;;0.97;0.70;;;24.10;99.90;;;;;;5100909;28;20637;-82
2022/10/15 12:28:22;;;;;;;0.93;0.70;;;24.20;99.90;;;;;;5109853;28;20191;-79
2022/10/15 12:30:58;;;;;;;0.77;0.77;;;24.10;99.90;;;;;;5117114;28;20164;-83
2022/10/15 12:33:43;;;;;;;1.00;0.70;;;24.00;99.90;;;;;;5102237;28;20170;-82
2022/10/15 12:36:21;;;;;;;4.03;0.80;;;24.00;99.90;;;;;;5096205;28;20214;-83
2022/10/15 12:38:55;;;;;;;1.63;0.60;;;23.90;99.90;;;;;;5095779;28;20203;-81
2022/10/15 12:41:38;;;;;;;2.20;0.97;;;24.50;99.90;;;;;;5097131;28;20672;-83
2022/10/15 12:44:24;;;;;;;1.57;0.80;;;24.70;99.90;;;;;;5098761;28;20153;-81
2022/10/15 12:46:50;;;;;;;0.90;0.50;;;24.30;99.90;;;;;;5098188;28;20157;-84
2022/10/15 12:49:25;;;;;;;0.90;0.70;;;23.10;99.90;;;;;;5099726;28;20200;-83
2022/10/15 12:51:52;;;;;;;2.10;0.87;;;22.40;99.90;;;;;;5101372;28;20226;-82
2022/10/15 12:54:39;;;;;;;0.70;0.70;;;22.40;99.90;;;;;;5100395;28;20199;-81
2022/10/15 12:57:30;;;;;;;0.60;0.60;;;22.10;99.90;;;;;;5099503;28;20251;-82
2022/10/15 13:00:22;;;;;;;0.80;0.60;;;21.70;99.90;;;;;;5090007;28;20598;-82
2022/10/15 13:02:49;;;;;;;1.40;0.70;;;21.60;99.90;;;;;;5100347;28;20238;-83
2022/10/15 13:05:33;;;;;;;0.53;0.53;;;22.30;99.90;;;;;;5100952;28;20636;-82
2022/10/15 13:08:02;;;;;;;2.33;0.70;;;22.90;99.90;;;;;;5099007;28;20594;-83
2022/10/15 13:10:29;;;;;;;1.00;0.50;;;24.00;99.90;;;;;;5100948;28;20175;-82
2022/10/15 13:13:01;;;;;;;1.73;0.90;;;24.60;99.90;;;;;;5100196;28;20206;-85
2022/10/15 13:15:29;;;;;;;1.20;0.70;;;24.90;99.90;;;;;;5101305;28;20649;-83
2022/10/15 13:17:58;;;;;;;2.33;0.70;;;25.20;99.90;;;;;;5101619;28;20192;-82
2022/10/15 13:20:43;;;;;;;1.10;0.67;;;24.90;99.90;;;;;;5100877;28;20172;-84
2022/10/15 13:23:15;;;;;;;1.53;0.83;;;24.40;99.90;;;;;;5102999;28;20645;-82
2022/10/15 13:25:41;;;;;;;0.67;0.60;;;24.20;99.90;;;;;;5102262;28;20217;-83
2022/10/15 13:28:35;;;;;;;0.90;0.50;;;24.90;99.90;;;;;;5103282;28;20189;-84
2022/10/15 13:31:04;;;;;;;2.30;0.60;;;24.80;99.90;;;;;;5103087;28;20153;-84
2022/10/15 13:33:30;;;;;;;1.13;0.70;;;24.90;99.90;;;;;;5101903;28;20169;-82
2022/10/15 13:36:06;;;;;;;1.70;0.50;;;25.20;99.90;;;;;;5100209;28;20175;-82
2022/10/15 13:38:39;;;;;;;1.10;0.70;;;25.30;99.90;;;;;;5100737;28;20195;-81
2022/10/15 13:41:06;;;;;;;0.90;0.80;;;24.20;99.90;;;;;;5100932;28;20334;-81
2022/10/15 13:43:32;;;;;;;1.20;0.60;;;22.50;99.90;;;;;;5097120;28;20270;-80
2022/10/15 13:46:00;;;;;;;0.83;0.60;;;21.40;99.90;;;;;;5098085;28;20198;-81
2022/10/15 13:48:30;;;;;;;1.17;0.70;;;20.90;99.90;;;;;;5096980;28;20197;-81
2022/10/15 13:51:03;;;;;;;1.00;0.60;;;20.60;99.90;;;;;;5097144;28;20174;-80
2022/10/15 13:53:32;;;;;;;3.00;0.63;;;20.00;99.90;;;;;;5098835;28;20206;-82
2022/10/15 13:56:01;;;;;;;1.83;0.70;;;19.80;99.90;;;;;;5099546;28;20514;-82
2022/10/15 13:58:33;;;;;;;1.33;0.70;;;19.80;99.90;;;;;;5097801;28;20596;-81
2022/10/15 14:01:09;;;;;;;0.60;0.57;;;19.70;99.90;;;;;;5098613;28;20180;-83
2022/10/15 14:03:38;;;;;;;0.73;0.73;;;19.40;99.90;;;;;;5097317;28;20208;-84
2022/10/15 14:06:23;;;;;;;0.73;0.60;;;19.20;99.90;;;;;;5098121;28;20230;-81
2022/10/15 14:08:51;;;;;;;2.40;0.90;;;19.00;99.90;;;;;;5098057;28;20265;-80
2022/10/15 14:11:18;;;;;;;0.73;0.73;;;19.00;99.90;;;;;;5097520;28;20183;-81
2022/10/15 14:13:52;;;;;;;0.63;0.63;;;18.90;99.90;;;;;;5096974;28;20249;-80
2022/10/15 14:16:29;;;;;;;2.60;0.70;;;18.70;99.90;;;;;;5098477;28;20166;-80
2022/10/15 14:19:09;;;;;;;1.23;0.80;;;18.50;99.90;;;;;;5098737;28;20680;-81
2022/10/15 14:21:41;;;;;;;0.97;0.70;;;18.50;99.90;;;;;;5098098;28;20206;-81
2022/10/15 14:24:16;;;;;;;1.33;0.80;;;18.50;99.90;;;;;;5097083;28;20170;-81
2022/10/15 14:26:42;;;;;;;0.60;0.60;;;18.50;99.90;;;;;;5098924;28;20171;-79
2022/10/15 14:29:28;;;;;;;1.40;0.90;;;18.40;99.90;;;;;;5099589;28;20238;-81
2022/10/15 14:31:54;;;;;;;1.30;0.80;;;18.30;99.90;;;;;;5100056;28;20177;-82
2022/10/15 14:34:35;;;;;;;2.63;0.90;;;18.30;99.90;;;;;;5100760;28;20736;-81
2022/10/15 14:37:02;;;;;;;2.13;0.90;;;18.30;99.90;;;;;;5101785;28;20173;-81
2022/10/15 14:39:36;;;;;;;0.93;0.80;;;18.40;99.90;;;;;;5102023;28;20563;-81
2022/10/15 14:42:24;;;;;;;1.40;0.80;;;18.30;99.90;;;;;;5102935;28;20234;-82
2022/10/15 14:44:50;;;;;;;1.10;1.00;;;18.30;99.90;;;;;;5102815;28;20169;-82
2022/10/15 14:47:29;;;;;;;1.30;0.80;;;18.30;99.90;;;;;;5104678;28;20176;-81
2022/10/15 14:49:59;;;;;;;4.00;1.10;;;18.30;99.90;;;;;;5110419;28;20172;-82
2022/10/15 14:52:27;;;;;;;2.60;0.97;;;18.20;99.90;;;;;;5108399;28;20227;-81
2022/10/15 14:55:07;;;;;;;1.67;1.00;;;18.20;99.90;;;;;;5099655;28;20176;-81
2022/10/15 14:57:38;;;;;;;2.17;1.27;;;18.00;99.90;;;;;;5097070;28;20199;-82
2022/10/15 15:00:26;;;;;;;2.63;1.40;;;17.90;99.90;;;;;;5095852;28;20183;-80
2022/10/15 15:02:57;;;;;;;1.73;1.30;;;17.80;99.90;;;;;;5097021;28;20214;-83
2022/10/15 15:05:27;;;;;;;1.17;0.93;;;17.80;99.90;;;;;;5096794;28;20302;-80
2022/10/15 15:07:55;;;;;;;2.50;1.00;;;17.70;99.90;;;;;;5096747;28;20329;-79
2022/10/15 15:10:25;;;;;;;1.23;1.10;;;17.70;99.90;;;;;;5095545;28;20541;-82
2022/10/15 15:12:55;;;;;;;4.10;2.83;;;17.60;99.90;;;;;;5097511;28;20259;-83
2022/10/15 15:15:23;;;;;;;2.23;1.37;;;17.50;99.90;;;;;;5096294;28;20249;-79
2022/10/15 15:17:50;;;;;;;1.53;1.00;;;17.50;99.90;;;;;;5096250;28;20281;-79
2022/10/15 15:20:20;;;;;;;2.10;1.20;;;17.40;99.90;;;;;;5097920;28;20176;-81
2022/10/15 15:22:50;;;;;;;2.83;1.07;;;17.40;99.90;;;;;;5098056;28;20187;-81
2022/10/15 15:25:19;;;;;;;1.93;1.30;;;17.30;99.90;;;;;;5098522;28;20200;-82
2022/10/15 15:27:45;;;;;;;4.13;1.87;;;17.20;99.90;;;;;;5097124;28;20198;-82
2022/10/15 15:30:24;;;;;;;3.27;1.50;;;17.20;99.90;;;;;;5096103;28;20263;-82
2022/10/15 15:32:50;;;;;;;1.83;1.20;;;17.10;99.90;;;;;;5097366;28;20225;-81
2022/10/15 15:35:28;;;;;;;4.20;1.37;;;17.10;99.90;;;;;;5097886;28;20255;-82
2022/10/15 15:37:53;;;;;;;3.73;1.10;;;17.00;99.90;;;;;;5096224;28;20245;-81
2022/10/15 15:40:19;;;;;;;4.47;1.40;;;16.90;99.90;;;;;;5094557;28;20267;-79
2022/10/15 15:42:45;;;;;;;1.97;1.40;;;16.90;99.90;;;;;;5094180;28;20200;-80
2022/10/15 15:45:25;;;;;;;1.63;1.20;;;16.90;99.90;;;;;;5096543;28;20169;-80
2022/10/15 15:47:51;;;;;;;4.33;2.03;;;16.80;99.90;;;;;;5098414;28;20231;-82
2022/10/15 15:50:19;;;;;;;5.07;3.27;;;16.80;99.90;;;;;;5102468;28;20164;-83
2022/10/15 15:52:45;;;;;;;3.70;2.73;;;16.80;99.90;;;;;;5102023;28;20179;-83
2022/10/15 15:55:19;;;;;;;3.67;2.60;;;16.80;99.90;;;;;;5102391;28;20236;-80
2022/10/15 15:57:45;;;;;;;9.03;5.20;;;16.70;99.90;;;;;;5103073;28;20200;-81
2022/10/15 16:00:11;;;;;;;4.20;2.77;;;16.70;99.90;;;;;;5099521;28;20191;-82
2022/10/15 16:02:37;;;;;;;4.73;3.20;;;16.70;99.90;;;;;;5099351;28;20221;-82
2022/10/15 16:05:05;;;;;;;3.47;2.20;;;16.70;99.90;;;;;;5097742;28;20254;-82
2022/10/15 16:07:32;;;;;;;2.07;1.60;;;16.70;99.90;;;;;;5098355;28;20557;-82
2022/10/15 16:09:57;;;;;;;4.87;2.70;;;16.60;99.90;;;;;;5098317;28;20172;-81
2022/10/15 16:12:23;;;;;;;5.20;2.67;;;16.60;99.90;;;;;;5095655;28;20550;-82
2022/10/15 16:14:49;;;;;;;1.57;1.47;;;16.50;99.90;;;;;;5096296;28;20175;-82
2022/10/15 16:17:16;;;;;;;2.70;2.07;;;16.50;99.90;;;;;;5095558;28;20180;-81
2022/10/15 16:19:42;;;;;;;11.43;5.17;;;16.50;99.90;;;;;;5095874;28;20172;-79
2022/10/15 16:22:07;;;;;;;11.03;6.20;;;16.40;99.90;;;;;;5097076;28;20670;-82
2022/10/15 16:24:34;;;;;;;24.33;14.10;;;16.40;99.90;;;;;;5101336;28;20172;-82
2022/10/15 16:27:00;;;;;;;3.17;2.37;;;16.30;99.90;;;;;;5100685;28;20292;-80
2022/10/15 16:29:25;;;;;;;15.27;8.93;;;16.30;99.90;;;;;;5101325;28;20642;-82
2022/10/15 16:31:51;;;;;;;26.33;15.63;;;16.30;99.90;;;;;;5099947;28;20179;-79
2022/10/15 16:34:17;;;;;;;8.17;5.67;;;16.30;99.90;;;;;;5100509;28;20180;-82
2022/10/15 16:36:42;;;;;;;29.23;18.63;;;16.20;99.90;;;;;;5101700;28;20183;-81
2022/10/15 16:39:09;;;;;;;42.10;20.23;;;16.20;99.90;;;;;;5100628;28;20203;-82
2022/10/15 16:41:35;;;;;;;24.93;14.80;;;16.20;99.90;;;;;;5101458;28;20211;-82
2022/10/15 16:44:00;;;;;;;12.97;9.03;;;16.10;99.90;;;;;;5102428;28;20519;-81
2022/10/15 16:46:26;;;;;;;11.57;7.60;;;16.10;99.90;;;;;;5100300;28;20172;-81
2022/10/15 16:48:54;;;;;;;6.10;4.80;;;16.10;99.90;;;;;;5101672;28;20184;-82
2022/10/15 16:51:20;;;;;;;6.47;4.30;;;16.00;99.90;;;;;;5101467;28;20172;-80
2022/10/15 16:53:47;;;;;;;7.10;3.33;;;16.00;99.90;;;;;;5100649;28;20184;-82
2022/10/15 16:56:15;;;;;;;6.20;3.10;;;15.90;99.90;;;;;;5100521;28;20206;-82
2022/10/15 16:58:41;;;;;;;3.47;2.40;;;15.80;99.90;;;;;;5101146;28;20658;-82
2022/10/15 17:01:11;;;;;;;4.53;2.30;;;15.80;99.90;;;;;;5099759;28;20266;-81
2022/10/15 17:03:38;;;;;;;5.03;3.40;;;15.80;99.90;;;;;;5100123;28;20172;-82
2022/10/15 17:06:07;;;;;;;4.53;3.40;;;15.70;99.90;;;;;;5100157;28;20173;-82
2022/10/15 17:08:46;;;;;;;6.03;3.77;;;15.60;99.90;;;;;;5100138;28;20196;-84
2022/10/15 17:11:15;;;;;;;4.97;4.07;;;15.60;99.90;;;;;;5101186;28;20160;-83
2022/10/15 17:13:41;;;;;;;11.70;8.43;;;15.50;99.90;;;;;;5101433;28;20176;-84
2022/10/15 17:16:09;;;;;;;8.07;6.60;;;15.50;99.90;;;;;;5105289;28;20184;-80
2022/10/15 17:18:35;;;;;;;4.73;3.70;;;15.40;99.90;;;;;;5101023;28;20199;-81
2022/10/15 17:21:01;;;;;;;6.23;4.00;;;15.50;99.90;;;;;;5100343;28;20176;-81
2022/10/15 17:23:28;;;;;;;5.20;4.70;;;15.60;99.90;;;;;;5100489;28;20180;-81
2022/10/15 17:25:53;;;;;;;5.00;3.40;;;15.60;99.90;;;;;;5102528;28;20165;-80
2022/10/15 17:28:19;;;;;;;5.10;2.73;;;15.60;99.90;;;;;;5104064;28;20190;-80
2022/10/15 17:30:44;;;;;;;4.17;2.97;;;15.60;99.90;;;;;;5113980;28;20156;-83
2022/10/15 17:33:10;;;;;;;4.07;2.20;;;15.60;99.90;;;;;;5119006;28;20176;-81
2022/10/15 17:35:36;;;;;;;4.43;2.37;;;15.60;99.90;;;;;;5112857;28;20263;-80
2022/10/15 17:38:03;;;;;;;5.30;2.33;;;15.50;99.90;;;;;;5100823;28;20200;-80
2022/10/15 17:40:28;;;;;;;6.70;3.10;;;15.40;99.90;;;;;;5099609;28;20187;-80
2022/10/15 17:42:54;;;;;;;6.87;3.10;;;15.40;99.90;;;;;;5100602;28;20200;-82
2022/10/15 17:45:23;;;;;;;5.13;3.20;;;15.30;99.90;;;;;;5099156;28;20176;-80
2022/10/15 17:47:49;;;;;;;5.27;3.27;;;15.20;99.90;;;;;;5100386;28;20238;-80
2022/10/15 17:50:15;;;;;;;5.10;2.67;;;15.20;99.90;;;;;;5100099;28;20168;-80
2022/10/15 17:52:41;;;;;;;3.67;2.00;;;15.10;99.90;;;;;;5099285;28;20180;-80
2022/10/15 17:55:07;;;;;;;2.27;1.70;;;15.10;99.90;;;;;;5099423;28;20565;-80
2022/10/15 17:57:33;;;;;;;2.37;1.50;;;15.00;99.90;;;;;;5100338;28;20200;-81
2022/10/15 17:59:58;;;;;;;5.03;2.83;;;15.00;99.90;;;;;;5099658;28;20176;-81
2022/10/15 18:02:24;;;;;;;16.50;9.17;;;14.90;99.90;;;;;;5100454;28;20300;-82
2022/10/15 18:04:50;;;;;;;6.87;6.27;;;14.90;99.90;;;;;;5099406;28;20183;-81
2022/10/15 18:07:17;;;;;;;3.33;3.03;;;14.90;99.90;;;;;;5099513;28;20549;-81
2022/10/15 18:09:44;;;;;;;3.60;2.70;;;14.90;99.90;;;;;;5099935;28;20168;-81
2022/10/15 18:12:10;;;;;;;6.27;2.20;;;15.00;99.90;;;;;;5097439;28;20230;-79
2022/10/15 18:14:36;;;;;;;3.80;2.10;;;15.00;99.90;;;;;;5098946;28;20183;-78
2022/10/15 18:17:03;;;;;;;1.97;1.77;;;15.10;99.90;;;;;;5099079;28;20177;-80
2022/10/15 18:19:29;;;;;;;3.50;1.50;;;15.20;99.90;;;;;;5099216;28;20188;-80
2022/10/15 18:21:55;;;;;;;4.27;2.10;;;15.30;99.90;;;;;;5098891;28;20192;-80
2022/10/15 18:24:22;;;;;;;3.40;2.03;;;15.40;99.90;;;;;;5098938;28;20171;-78
2022/10/15 18:26:49;;;;;;;2.03;1.63;;;15.40;99.90;;;;;;5097750;28;20249;-80
2022/10/15 18:29:15;;;;;;;2.83;1.70;;;15.40;99.90;;;;;;5097560;28;20192;-80
2022/10/15 18:31:40;;;;;;;3.00;1.50;;;15.40;99.90;;;;;;5098885;28;20173;-81
2022/10/15 18:34:06;;;;;;;1.80;1.40;;;15.40;99.90;;;;;;5099524;28;20186;-80
2022/10/15 18:36:32;;;;;;;3.27;2.17;;;15.40;99.90;;;;;;5098647;28;20228;-80
2022/10/15 18:38:58;;;;;;;3.00;1.90;;;15.40;99.90;;;;;;5098530;28;20196;-79
2022/10/15 18:41:29;;;;;;;2.07;1.70;;;15.40;99.90;;;;;;5098512;28;20192;-80
2022/10/15 18:43:56;;;;;;;2.80;1.87;;;15.40;99.90;;;;;;5099358;28;20157;-81
2022/10/15 18:46:22;;;;;;;3.07;1.90;;;15.40;99.90;;;;;;5098612;28;20164;-80
2022/10/15 18:48:48;;;;;;;4.13;2.03;;;15.30;99.90;;;;;;5096780;28;20287;-80
2022/10/15 18:51:14;;;;;;;3.10;2.07;;;15.30;99.90;;;;;;5099190;28;20288;-78
2022/10/15 18:53:40;;;;;;;3.90;2.00;;;15.30;99.90;;;;;;5099316;28;20175;-78
2022/10/15 18:56:07;;;;;;;1.97;1.77;;;15.30;99.90;;;;;;5098970;28;20172;-80
2022/10/15 18:58:33;;;;;;;2.13;1.60;;;15.20;99.90;;;;;;5097742;28;20234;-78
2022/10/15 19:01:26;;;;;;;2.17;1.43;;;15.10;99.90;;;;;;5099154;28;20191;-80
2022/10/15 19:03:53;;;;;;;4.13;2.03;;;14.90;99.90;;;;;;5100341;28;20255;-79
2022/10/15 19:06:20;;;;;;;3.17;2.20;;;14.80;99.90;;;;;;5098343;28;20173;-79
2022/10/15 19:08:45;;;;;;;5.57;2.57;;;14.80;99.90;;;;;;5098845;28;20184;-79
2022/10/15 19:11:11;;;;;;;4.13;2.27;;;14.70;99.90;;;;;;5098970;28;20247;-79
2022/10/15 19:13:37;;;;;;;4.70;2.43;;;14.70;99.90;;;;;;5097943;28;20271;-78
2022/10/15 19:16:04;;;;;;;2.70;2.00;;;14.60;99.90;;;;;;5099098;28;20187;-78
2022/10/15 19:18:31;;;;;;;3.87;2.13;;;14.60;99.90;;;;;;5097120;28;20199;-80
2022/10/15 19:20:56;;;;;;;5.57;2.70;;;14.50;99.90;;;;;;5096260;28;20257;-78
2022/10/15 19:23:22;;;;;;;3.33;2.47;;;14.50;99.90;;;;;;5095341;28;20642;-79
2022/10/15 19:25:48;;;;;;;2.50;2.30;;;14.40;99.90;;;;;;5095831;28;20168;-79
2022/10/15 19:28:14;;;;;;;5.27;2.97;;;14.40;99.90;;;;;;5095964;28;20188;-78
2022/10/15 19:30:40;;;;;;;3.47;2.40;;;14.30;99.90;;;;;;5095956;28;20534;-79
2022/10/15 19:33:06;;;;;;;4.20;2.60;;;14.30;99.90;;;;;;5096867;28;20199;-81
2022/10/15 19:35:43;;;;;;;4.57;2.73;;;14.20;99.90;;;;;;5096407;28;20258;-79
2022/10/15 19:38:09;;;;;;;5.80;2.37;;;14.20;99.90;;;;;;5095567;28;20195;-79
2022/10/15 19:40:38;;;;;;;3.63;1.90;;;14.10;99.90;;;;;;5096793;28;20172;-80
2022/10/15 19:43:05;;;;;;;5.87;2.23;;;14.00;99.90;;;;;;5097510;28;20682;-78
2022/10/15 19:45:38;;;;;;;3.13;2.30;;;14.00;99.90;;;;;;5097359;28;20180;-79
2022/10/15 19:48:04;;;;;;;2.40;1.93;;;14.00;99.90;;;;;;5101049;28;20188;-80
2022/10/15 19:50:30;;;;;;;4.03;2.20;;;13.90;99.90;;;;;;5096442;28;20643;-80
2022/10/15 19:52:56;;;;;;;4.30;3.27;;;13.90;99.90;;;;;;5097837;28;20183;-79
2022/10/15 19:55:22;;;;;;;4.77;3.00;;;13.90;99.90;;;;;;5096986;28;20184;-80
2022/10/15 19:57:48;;;;;;;5.10;3.00;;;13.90;99.90;;;;;;5097366;28;20511;-80
2022/10/15 20:00:15;;;;;;;5.40;2.97;;;13.90;99.90;;;;;;5100614;28;20179;-79
2022/10/15 20:02:40;;;;;;;3.97;3.03;;;13.90;99.90;;;;;;5107607;28;20196;-79
2022/10/15 20:05:07;;;;;;;4.50;3.17;;;13.90;99.90;;;;;;5112307;28;20669;-82
2022/10/15 20:07:33;;;;;;;4.97;3.73;;;13.90;99.90;;;;;;5101558;28;20191;-80
2022/10/15 20:09:59;;;;;;;5.50;3.93;;;13.90;99.90;;;;;;5096414;28;20176;-80
2022/10/15 20:12:25;;;;;;;5.63;3.60;;;13.90;99.90;;;;;;5096401;28;20664;-81
2022/10/15 20:14:52;;;;;;;4.90;3.50;;;13.90;99.90;;;;;;5097633;28;20199;-80
2022/10/15 20:17:18;;;;;;;7.27;4.70;;;13.80;99.90;;;;;;5095620;28;20259;-79
2022/10/15 20:19:44;;;;;;;9.30;5.10;;;13.80;99.90;;;;;;5095796;28;20222;-81
2022/10/15 20:22:10;;;;;;;19.87;10.77;;;13.80;99.90;;;;;;5093334;28;20708;-80
2022/10/15 20:24:35;;;;;;;10.93;6.43;;;13.80;99.90;;;;;;5093743;28;20668;-79